Vanguard — WDD5619 — position and weather

sailwx.info

Track history (hours):
 
Tides and Currents Weather Stations Pressure Air Temp Water Temp Dewpoint Dewpoint Depression Visibility Wind Speed Wind Dir Waves Ship Positions

Vanguard

Owner: Galbraith, Ruth A, Oxnard, CA. More information available from US FCC via Universal Licensing System and Coast Guard Vessel Documentation Center.

Last reported at 2018-Apr-23 23:49 UTC. Time now 2018-Jun-20 18:57 UTC.
Position N 34°10' W 119°14'.
Warning: this ship's position is 57 days out of date.

Date/timePositionNaut miles runAvg speedWind from/ knotsBaromVisibWave heightAir tempDewpointWater temp
2018-Apr-23 23:49N 34°10' W 119°14'0 0.0
2018-Apr-23 23:28N 34°10' W 119°14'5 9.2
2018-Apr-23 22:58N 34°06' W 119°17'511.8
2018-Apr-23 22:30N 34°02' W 119°20'3 6.4
2018-Apr-23 22:00N 34°00' W 119°24'5 9.2
2018-Apr-23 21:29N 34°04' W 119°21'5 9.1
2018-Apr-23 20:59N 34°07' W 119°17'4 7.0
2018-Apr-23 20:28N 34°10' W 119°14'0 0.0
2018-Apr-23 19:52N 34°10' W 119°14'1 2.9
2018-Apr-23 19:30N 34°09' W 119°14'611.1
2018-Apr-23 19:00N 34°06' W 119°19'611.2
2018-Apr-23 18:30N 34°02' W 119°24'2 4.1
2018-Apr-23 17:58N 34°01' W 119°21'4 8.4
2018-Apr-23 17:30N 34°04' W 119°19'4 8.7
2018-Apr-23 17:00N 34°08' W 119°15'3 5.5
2018-Apr-23 16:29N 34°10' W 119°14'0 0.0
2018-Apr-23 00:07N 34°10' W 119°14'0 0.0
2018-Apr-22 23:46N 34°10' W 119°14'2 7.3
2018-Apr-22 23:27N 34°08' W 119°15'511.5
2018-Apr-22 23:00N 34°04' W 119°19'4 7.3
2018-Apr-22 22:30N 34°01' W 119°21'3 4.3
2018-Apr-22 21:55N 34°00' W 119°24'511.5
2018-Apr-22 21:30N 34°04' W 119°20'5 8.9
2018-Apr-22 20:58N 34°07' W 119°17'1 0.4
2018-Apr-22 19:22N 34°08' W 119°16'411.5
2018-Apr-22 19:00N 34°05' W 119°20'611.5
2018-Apr-22 18:30N 34°01' W 119°24'2 3.7
2018-Apr-22 17:52N 34°01' W 119°22'3 8.3
2018-Apr-22 17:29N 34°03' W 119°19'510.4
2018-Apr-22 17:00N 34°07' W 119°16'6 0.3
2018-Apr-21 17:42N 34°03' W 119°21'2 8.8
2018-Apr-21 17:26N 34°05' W 119°19'6 9.8
2018-Apr-21 16:48N 34°09' W 119°14'1 0.1
2018-Apr-20 23:47N 34°10' W 119°14'4 8.0
2018-Apr-20 23:19N 34°07' W 119°16'511.8
2018-Apr-20 22:55N 34°03' W 119°19'3 5.2
2018-Apr-20 22:23N 34°01' W 119°22'1 3.6
2018-Apr-20 22:00N 34°01' W 119°23'612.0
2018-Apr-20 21:30N 34°05' W 119°18'3 6.4
2018-Apr-20 20:58N 34°08' W 119°16'4 2.1
2018-Apr-20 19:03N 34°05' W 119°19'512.1
2018-Apr-20 18:40N 34°02' W 119°23'211.8
2018-Apr-20 18:30N 34°01' W 119°25'2 3.7
2018-Apr-20 17:51N 34°01' W 119°22'411.0
2018-Apr-20 17:29N 34°04' W 119°18'5 9.6
2018-Apr-20 16:56N 34°08' W 119°15'  
2018-Apr-15 22:43N 34°10' W 119°13'5 9.6
2018-Apr-15 22:11N 34°05' W 119°17'211.3
2018-Apr-15 22:00N 34°04' W 119°18'4 5.3
2018-Apr-15 21:18N 34°01' W 119°21'1 0.9
2018-Apr-15 20:07N 33°60' W 119°21'1 1.3
2018-Apr-15 19:23N 34°01' W 119°22'1 1.5
2018-Apr-15 18:33N 34°01' W 119°21'0 0.8
2018-Apr-15 18:29N 34°01' W 119°21'1 0.8
2018-Apr-15 17:48N 34°01' W 119°22'311.4
2018-Apr-15 17:30N 34°04' W 119°19'611.6
2018-Apr-15 17:00N 34°08' W 119°15'2 0.1
2018-Apr-14 23:31N 34°10' W 119°14'1 5.0
2018-Apr-14 23:16N 34°09' W 119°14'412.2
2018-Apr-14 22:56N 34°07' W 119°19'5 9.7
2018-Apr-14 22:27N 34°06' W 119°24'1 2.6
2018-Apr-14 21:55N 34°06' W 119°26'5 7.9
2018-Apr-14 21:14N 34°08' W 119°20'411.0
2018-Apr-14 20:54N 34°08' W 119°15'4 2.7
2018-Apr-14 19:34N 34°05' W 119°18'112.1
2018-Apr-14 19:29N 34°04' W 119°18'5 5.8
2018-Apr-14 18:42N 34°01' W 119°22'0 0.1
2018-Apr-14 18:19N 34°01' W 119°22'0 0.0
2018-Apr-14 17:55N 34°01' W 119°22'0 0.0
2018-Apr-14 17:01N 34°01' W 119°22'0 0.0
2018-Apr-14 16:55N 34°01' W 119°22'0 0.1
2018-Apr-14 16:17N 34°01' W 119°22'3 9.4
2018-Apr-14 16:00N 34°03' W 119°20'  
Track history (hours):
 
Tides and Currents Weather Stations Pressure Air Temp Water Temp Dewpoint Dewpoint Depression Visibility Wind Speed Wind Dir Waves Ship Positions

Vanguard

Owner: Galbraith, Ruth A, Oxnard, CA. More information available from US FCC via Universal Licensing System and Coast Guard Vessel Documentation Center.

Last reported at 2018-Apr-23 23:49 UTC. Time now 2018-Jun-20 18:57 UTC.
Position N 34°10' W 119°14'.
Warning: this ship's position is 57 days out of date.

Date/timePositionNaut miles runAvg speedWind from/ knotsBaromVisibWave heightAir tempDewpointWater temp
2018-Apr-23 23:49N 34°10' W 119°14'0 0.0
2018-Apr-23 23:28N 34°10' W 119°14'5 9.2
2018-Apr-23 22:58N 34°06' W 119°17'511.8
2018-Apr-23 22:30N 34°02' W 119°20'3 6.4
2018-Apr-23 22:00N 34°00' W 119°24'5 9.2
2018-Apr-23 21:29N 34°04' W 119°21'5 9.1
2018-Apr-23 20:59N 34°07' W 119°17'4 7.0
2018-Apr-23 20:28N 34°10' W 119°14'0 0.0
2018-Apr-23 19:52N 34°10' W 119°14'1 2.9
2018-Apr-23 19:30N 34°09' W 119°14'611.1
2018-Apr-23 19:00N 34°06' W 119°19'611.2
2018-Apr-23 18:30N 34°02' W 119°24'2 4.1
2018-Apr-23 17:58N 34°01' W 119°21'4 8.4
2018-Apr-23 17:30N 34°04' W 119°19'4 8.7
2018-Apr-23 17:00N 34°08' W 119°15'3 5.5
2018-Apr-23 16:29N 34°10' W 119°14'0 0.0
2018-Apr-23 00:07N 34°10' W 119°14'0 0.0
2018-Apr-22 23:46N 34°10' W 119°14'2 7.3
2018-Apr-22 23:27N 34°08' W 119°15'511.5
2018-Apr-22 23:00N 34°04' W 119°19'4 7.3
2018-Apr-22 22:30N 34°01' W 119°21'3 4.3
2018-Apr-22 21:55N 34°00' W 119°24'511.5
2018-Apr-22 21:30N 34°04' W 119°20'5 8.9
2018-Apr-22 20:58N 34°07' W 119°17'1 0.4
2018-Apr-22 19:22N 34°08' W 119°16'411.5
2018-Apr-22 19:00N 34°05' W 119°20'611.5
2018-Apr-22 18:30N 34°01' W 119°24'2 3.7
2018-Apr-22 17:52N 34°01' W 119°22'3 8.3
2018-Apr-22 17:29N 34°03' W 119°19'510.4
2018-Apr-22 17:00N 34°07' W 119°16'6 0.3
2018-Apr-21 17:42N 34°03' W 119°21'2 8.8
2018-Apr-21 17:26N 34°05' W 119°19'6 9.8
2018-Apr-21 16:48N 34°09' W 119°14'1 0.1
2018-Apr-20 23:47N 34°10' W 119°14'4 8.0
2018-Apr-20 23:19N 34°07' W 119°16'511.8
2018-Apr-20 22:55N 34°03' W 119°19'3 5.2
2018-Apr-20 22:23N 34°01' W 119°22'1 3.6
2018-Apr-20 22:00N 34°01' W 119°23'612.0
2018-Apr-20 21:30N 34°05' W 119°18'3 6.4
2018-Apr-20 20:58N 34°08' W 119°16'4 2.1
2018-Apr-20 19:03N 34°05' W 119°19'512.1
2018-Apr-20 18:40N 34°02' W 119°23'211.8
2018-Apr-20 18:30N 34°01' W 119°25'2 3.7
2018-Apr-20 17:51N 34°01' W 119°22'411.0
2018-Apr-20 17:29N 34°04' W 119°18'5 9.6
2018-Apr-20 16:56N 34°08' W 119°15'  
2018-Apr-15 22:43N 34°10' W 119°13'5 9.6
2018-Apr-15 22:11N 34°05' W 119°17'211.3
2018-Apr-15 22:00N 34°04' W 119°18'4 5.3
2018-Apr-15 21:18N 34°01' W 119°21'1 0.9
2018-Apr-15 20:07N 33°60' W 119°21'1 1.3
2018-Apr-15 19:23N 34°01' W 119°22'1 1.5
2018-Apr-15 18:33N 34°01' W 119°21'0 0.8
2018-Apr-15 18:29N 34°01' W 119°21'1 0.8
2018-Apr-15 17:48N 34°01' W 119°22'311.4
2018-Apr-15 17:30N 34°04' W 119°19'611.6
2018-Apr-15 17:00N 34°08' W 119°15'2 0.1
2018-Apr-14 23:31N 34°10' W 119°14'1 5.0
2018-Apr-14 23:16N 34°09' W 119°14'412.2
2018-Apr-14 22:56N 34°07' W 119°19'5 9.7
2018-Apr-14 22:27N 34°06' W 119°24'1 2.6
2018-Apr-14 21:55N 34°06' W 119°26'5 7.9
2018-Apr-14 21:14N 34°08' W 119°20'411.0
2018-Apr-14 20:54N 34°08' W 119°15'4 2.7
2018-Apr-14 19:34N 34°05' W 119°18'112.1
2018-Apr-14 19:29N 34°04' W 119°18'5 5.8
2018-Apr-14 18:42N 34°01' W 119°22'0 0.1
2018-Apr-14 18:19N 34°01' W 119°22'0 0.0
2018-Apr-14 17:55N 34°01' W 119°22'0 0.0
2018-Apr-14 17:01N 34°01' W 119°22'0 0.0
2018-Apr-14 16:55N 34°01' W 119°22'0 0.1
2018-Apr-14 16:17N 34°01' W 119°22'3 9.4
2018-Apr-14 16:00N 34°03' W 119°20'  

Dump ship's entire track history